Map

Track Data

SID SEASON NUMBER BASIN SUBBASIN NAME ISO_TIME NATURE LAT LON WMO_WIND WMO_PRES WMO_AGENCY TRACK_TYPE DIST2LAND LANDFALL IFLAG USA_AGENCY USA_ATCF_ID USA_LAT USA_LON USA_RECORD USA_STATUS USA_WIND USA_PRES USA_SSHS USA_R34_NE USA_R34_SE USA_R34_SW USA_R34_NW USA_R50_NE USA_R50_SE USA_R50_SW USA_R50_NW USA_R64_NE USA_R64_SE USA_R64_SW USA_R64_NW USA_POCI USA_ROCI USA_RMW USA_EYE TOKYO_LAT TOKYO_LON TOKYO_GRADE TOKYO_WIND TOKYO_PRES TOKYO_R50_DIR TOKYO_R50_LONG TOKYO_R50_SHORT TOKYO_R30_DIR TOKYO_R30_LONG TOKYO_R30_SHORT TOKYO_LAND CMA_LAT CMA_LON CMA_CAT CMA_WIND CMA_PRES HKO_LAT HKO_LON HKO_CAT HKO_WIND HKO_PRES NEWDELHI_LAT NEWDELHI_LON NEWDELHI_GRADE NEWDELHI_WIND NEWDELHI_PRES NEWDELHI_CI NEWDELHI_DP NEWDELHI_POCI REUNION_LAT REUNION_LON REUNION_TYPE REUNION_WIND REUNION_PRES REUNION_TNUM REUNION_CI REUNION_RMW REUNION_R34_NE REUNION_R34_SE REUNION_R34_SW REUNION_R34_NW REUNION_R50_NE REUNION_R50_SE REUNION_R50_SW REUNION_R50_NW REUNION_R64_NE REUNION_R64_SE REUNION_R64_SW REUNION_R64_NW BOM_LAT BOM_LON BOM_TYPE BOM_WIND BOM_PRES BOM_TNUM BOM_CI BOM_RMW BOM_R34_NE BOM_R34_SE BOM_R34_SW BOM_R34_NW BOM_R50_NE BOM_R50_SE BOM_R50_SW BOM_R50_NW BOM_R64_NE BOM_R64_SE BOM_R64_SW BOM_R64_NW BOM_ROCI BOM_POCI BOM_EYE BOM_POS_METHOD BOM_PRES_METHOD NADI_LAT NADI_LON NADI_CAT NADI_WIND NADI_PRES WELLINGTON_LAT WELLINGTON_LON WELLINGTON_WIND WELLINGTON_PRES DS824_LAT DS824_LON DS824_STAGE DS824_WIND DS824_PRES TD9636_LAT TD9636_LON TD9636_STAGE TD9636_WIND TD9636_PRES TD9635_LAT TD9635_LON TD9635_WIND TD9635_PRES TD9635_ROCI NEUMANN_LAT NEUMANN_LON NEUMANN_CLASS NEUMANN_WIND NEUMANN_PRES MLC_LAT MLC_LON MLC_CLASS MLC_WIND MLC_PRES USA_GUST BOM_GUST BOM_GUST_PER REUNION_GUST REUNION_GUST_PER USA_SEAHGT USA_SEARAD_NE USA_SEARAD_SE USA_SEARAD_SW USA_SEARAD_NW STORM_SPEED STORM_DIR
1908032S14071 1908 6 SI MM NOT_NAMED 1908-02-01 06:00:00 NR -14.0000 71.2000 reunion spur-split 1587 1563 _____O________ -1 -14.0000 71.2000 99 9.90000 5 249
1908032S14071 1908 6 SI MM NOT_NAMED 1908-02-01 09:00:00 NR -14.0948 70.9523 spur-split 1563 1529 _____P________ -1 -14.0948 70.9523 99 5 248
1908032S14071 1908 6 SI MM NOT_NAMED 1908-02-01 12:00:00 NR -14.1900 70.7054 spur-split 1529 1505 _____P________ -1 -14.1900 70.7054 99 5 248
1908032S14071 1908 6 SI MM NOT_NAMED 1908-02-01 15:00:00 NR -14.2860 70.4604 spur-split 1505 1471 _____P________ -1 -14.2860 70.4604 99 5 248
1908032S14071 1908 6 SI MM NOT_NAMED 1908-02-01 18:00:00 NR -14.3835 70.2183 spur-split 1471 1447 _____P________ -1 -14.3835 70.2183 99 5 247
1908032S14071 1908 6 SI MM NOT_NAMED 1908-02-01 21:00:00 NR -14.4831 69.9802 spur-split 1447 1423 _____P________ -1 -14.4831 69.9802 99 5 246
1908032S14071 1908 6 SI MM NOT_NAMED 1908-02-02 00:00:00 NR -14.5853 69.7471 spur-split 1413 1389 _____P________ -1 -14.5853 69.7471 99 5 245
1908032S14071 1908 6 SI MM NOT_NAMED 1908-02-02 03:00:00 NR -14.6907 69.5200 spur-split 1389 1365 _____P________ -1 -14.6907 69.5200 99 5 244
1908032S14071 1908 6 SI MM NOT_NAMED 1908-02-02 06:00:00 NR -14.8000 69.3000 reunion spur-split 1365 1340 _____O________ -1 -14.8000 69.3000 99 9.90000 5 242
1908032S14071 1908 6 SI MM NOT_NAMED 1908-02-02 09:00:00 NR -14.9137 69.0877 spur-split 1340 1316 _____P________ -1 -14.9137 69.0877 99 5 240
1908032S14071 1908 6 SI MM NOT_NAMED 1908-02-02 12:00:00 NR -15.0327 68.8820 spur-split 1316 1287 _____P________ -1 -15.0327 68.8820 99 5 238
1908032S14071 1908 6 SI MM NOT_NAMED 1908-02-02 15:00:00 NR -15.1576 68.6813 spur-split 1287 1263 _____P________ -1 -15.1576 68.6813 99 5 236
1908032S14071 1908 6 SI MM NOT_NAMED 1908-02-02 18:00:00 NR -15.2894 68.4841 spur-split 1263 1238 _____P________ -1 -15.2894 68.4841 99 5 234
1908032S14071 1908 6 SI MM NOT_NAMED 1908-02-02 21:00:00 NR -15.4288 68.2890 spur-split 1238 1209 _____P________ -1 -15.4288 68.2890 99 5 233
1908032S14071 1908 6 SI MM NOT_NAMED 1908-02-03 00:00:00 NR -15.5765 68.0943 spur-split 1209 1185 _____P________ -1 -15.5765 68.0943 99 5 231
1908032S14071 1908 6 SI MM NOT_NAMED 1908-02-03 03:00:00 NR -15.7333 67.8985 spur-split 1185 1156 _____P________ -1 -15.7333 67.8985 99 5 230
1908032S14071 1908 6 SI MM NOT_NAMED 1908-02-03 06:00:00 NR -15.9000 67.7000 reunion spur-split 1156 1126 _____O________ -1 -15.9000 67.7000 99 9.90000 5 230
1908032S14071 1908 6 SI MM NOT_NAMED 1908-02-03 09:00:00 NR -16.0749 67.4789 spur-split 1126 1102 _____P________ -1 -16.0749 67.4789 99 6 230
1908032S14071 1908 6 SI MM NOT_NAMED 1908-02-03 12:00:00 NR -16.2602 67.2541 spur-split 1098 1064 _____P________ -1 -16.2602 67.2541 99 6 229
1908032S14071 1908 6 SI MM NOT_NAMED 1908-02-03 15:00:00 NR -16.4542 67.0285 spur-split 1059 1035 _____P________ -1 -16.4542 67.0285 99 6 227
1908032S14071 1908 6 SI MM NOT_NAMED 1908-02-03 18:00:00 NR -16.6553 66.8055 spur-split 1030 1002 _____P________ -1 -16.6553 66.8055 99 6 226
1908032S14071 1908 6 SI MM NOT_NAMED 1908-02-03 21:00:00 NR -16.8620 66.5879 spur-split 1002 973 _____P________ -1 -16.8620 66.5879 99 6 224
1908032S14071 1908 6 SI MM NOT_NAMED 1908-02-04 00:00:00 NR -17.0728 66.3790 spur-split 973 945 _____P________ -1 -17.0728 66.3790 99 6 222
1908032S14071 1908 6 SI MM NOT_NAMED 1908-02-04 03:00:00 NR -17.2859 66.1820 spur-split 945 917 _____P________ -1 -17.2859 66.1820 99 6 220
1908032S14071 1908 6 SI MM NOT_NAMED 1908-02-04 06:00:00 NR -17.5000 66.0000 reunion spur-split 917 889 _____O________ -1 -17.5000 66.0000 99 9.90000 5 220
1908032S14071 1908 6 SI MM NOT_NAMED 1908-02-04 09:00:00 NR -17.6943 65.8232 spur-split 889 872 _____P________ -1 -17.6943 65.8232 99 5 220
1908032S14071 1908 6 SI MM NOT_NAMED 1908-02-04 12:00:00 NR -17.8891 65.6589 spur-split 872 845 _____P________ -1 -17.8891 65.6589 99 5 217
1908032S14071 1908 6 SI MM NOT_NAMED 1908-02-04 15:00:00 NR -18.0869 65.5083 spur-split 845 828 _____P________ -1 -18.0869 65.5083 99 5 214
1908032S14071 1908 6 SI MM NOT_NAMED 1908-02-04 18:00:00 NR -18.2898 65.3725 spur-split 828 811 _____P________ -1 -18.2898 65.3725 99 5 210
1908032S14071 1908 6 SI MM NOT_NAMED 1908-02-04 21:00:00 NR -18.5002 65.2526 spur-split 811 795 _____P________ -1 -18.5002 65.2526 99 5 206
1908032S14071 1908 6 SI MM NOT_NAMED 1908-02-05 00:00:00 NR -18.7205 65.1498 spur-split 785 780 _____P________ -1 -18.7205 65.1498 99 5 201
1908032S14071 1908 6 SI MM NOT_NAMED 1908-02-05 03:00:00 NR -18.9530 65.0652 spur-split 778 763 _____P________ -1 -18.9530 65.0652 99 5 197
1908032S14071 1908 6 SI MM NOT_NAMED 1908-02-05 06:00:00 NR -19.2000 65.0000 reunion spur-split 763 757 _____O________ -1 -19.2000 65.0000 99 9.90000 5 192
1908032S14071 1908 6 SI MM NOT_NAMED 1908-02-05 09:00:00 NR -19.4692 64.9493 spur-split 747 744 _____P________ -1 -19.4692 64.9493 99 6 188
1908032S14071 1908 6 SI MM NOT_NAMED 1908-02-05 12:00:00 NR -19.7536 64.9193 spur-split 743 741 _____P________ -1 -19.7536 64.9193 99 6 183
1908032S14071 1908 6 SI MM NOT_NAMED 1908-02-05 15:00:00 NR -20.0498 64.9069 spur-split 741 740 _____P________ -1 -20.0498 64.9069 99 6 181
1908032S14071 1908 6 SI MM NOT_NAMED 1908-02-05 18:00:00 NR -20.3548 64.9091 spur-split 740 740 _____P________ -1 -20.3548 64.9091 99 6 0
1908032S14071 1908 6 SI MM NOT_NAMED 1908-02-05 21:00:00 NR -20.6655 64.9226 spur-split 740 740 _____P________ -1 -20.6655 64.9226 99 6 176
1908032S14071 1908 6 SI MM NOT_NAMED 1908-02-06 00:00:00 NR -20.9787 64.9444 spur-split 742 742 _____P________ -1 -20.9787 64.9444 99 6 177
1908032S14071 1908 6 SI MM NOT_NAMED 1908-02-06 03:00:00 NR -21.2912 64.9713 spur-split 756 756 _____P________ -1 -21.2912 64.9713 99 6 174
1908032S14071 1908 6 SI MM NOT_NAMED 1908-02-06 06:00:00 NR -21.6000 65.0000 reunion spur-split 761 761 _____O________ -1 -21.6000 65.0000 99 9.90000 6 176
1908032S14071 1908 6 SI MM NOT_NAMED 1908-02-06 09:00:00 NR -21.8807 65.0083 spur-split 767 767 _____P________ -1 -21.8807 65.0083 99 6 178
1908032S14071 1908 6 SI MM NOT_NAMED 1908-02-06 12:00:00 NR -22.1578 65.0199 spur-split 775 775 _____P________ -1 -22.1578 65.0199 99 6 178
1908032S14071 1908 6 SI MM NOT_NAMED 1908-02-06 15:00:00 NR -22.4342 65.0355 spur-split 781 781 _____P________ -1 -22.4342 65.0355 99 6 175
1908032S14071 1908 6 SI MM NOT_NAMED 1908-02-06 18:00:00 NR -22.7125 65.0559 spur-split 801 801 _____P________ -1 -22.7125 65.0559 99 6 177
1908032S14071 1908 6 SI MM NOT_NAMED 1908-02-06 21:00:00 NR -22.9955 65.0818 spur-split 812 812 _____P________ -1 -22.9955 65.0818 99 6 175
1908032S14071 1908 6 SI MM NOT_NAMED 1908-02-07 00:00:00 NR -23.2859 65.1139 spur-split 824 824 _____P________ -1 -23.2859 65.1139 99 6 174
1908032S14071 1908 6 SI MM NOT_NAMED 1908-02-07 03:00:00 NR -23.5865 65.1531 spur-split 846 846 _____P________ -1 -23.5865 65.1531 99 6 173
1908032S14071 1908 6 SI MM NOT_NAMED 1908-02-07 06:00:00 NR -23.9000 65.2000 reunion spur-split 860 860 _____O________ -1 -23.9000 65.2000 99 9.90000 7 172
1908032S14071 1908 6 SI MM NOT_NAMED 1908-02-07 09:00:00 NR -24.2499 65.2560 spur-split 883 883 _____P________ -1 -24.2499 65.2560 99 7 171
1908032S14071 1908 6 SI MM NOT_NAMED 1908-02-07 12:00:00 NR -24.6144 65.3206 spur-split 904 904 _____P________ -1 -24.6144 65.3206 99 8 170
1908032S14071 1908 6 SI MM NOT_NAMED 1908-02-07 15:00:00 NR -24.9879 65.3921 spur-split 935 935 _____P________ -1 -24.9879 65.3921 99 8 170
1908032S14071 1908 6 SI MM NOT_NAMED 1908-02-07 18:00:00 NR -25.3651 65.4691 spur-split 967 967 _____P________ -1 -25.3651 65.4691 99 8 169
1908032S14071 1908 6 SI MM NOT_NAMED 1908-02-07 21:00:00 NR -25.7403 65.5499 spur-split 986 986 _____P________ -1 -25.7403 65.5499 99 8 169
1908032S14071 1908 6 SI MM NOT_NAMED 1908-02-08 00:00:00 NR -26.1082 65.6332 spur-split 1020 1020 _____P________ -1 -26.1082 65.6332 99 7 168
1908032S14071 1908 6 SI MM NOT_NAMED 1908-02-08 03:00:00 NR -26.4633 65.7171 spur-split 1055 1055 _____P________ -1 -26.4633 65.7171 99 7 168
1908032S14071 1908 6 SI MM NOT_NAMED 1908-02-08 06:00:00 NR -26.8000 65.8000 reunion spur-split 1083 1083 _____O________ -1 -26.8000 65.8000 99 9.90000 6 168
1908032S14071 1908 6 SI MM NOT_NAMED 1908-02-08 09:00:00 NR -27.0862 65.8683 spur-split 1112 1112 _____P________ -1 -27.0862 65.8683 99 6 168
1908032S14071 1908 6 SI MM NOT_NAMED 1908-02-08 12:00:00 NR -27.3538 65.9355 spur-split 1134 1134 _____P________ -1 -27.3538 65.9355 99 5 167
1908032S14071 1908 6 SI MM NOT_NAMED 1908-02-08 15:00:00 NR -27.6089 66.0031 spur-split 1156 1156 _____P________ -1 -27.6089 66.0031 99 5 167
1908032S14071 1908 6 SI MM NOT_NAMED 1908-02-08 18:00:00 NR -27.8571 66.0726 spur-split 1186 1186 _____P________ -1 -27.8571 66.0726 99 5 166
1908032S14071 1908 6 SI MM NOT_NAMED 1908-02-08 21:00:00 NR -28.1045 66.1455 spur-split 1201 1201 _____P________ -1 -28.1045 66.1455 99 5 165
1908032S14071 1908 6 SI MM NOT_NAMED 1908-02-09 00:00:00 NR -28.3569 66.2233 spur-split 1231 1231 _____P________ -1 -28.3569 66.2233 99 5 164
1908032S14071 1908 6 SI MM NOT_NAMED 1908-02-09 03:00:00 NR -28.6201 66.3076 spur-split 1254 1254 _____P________ -1 -28.6201 66.3076 99 6 164
1908032S14071 1908 6 SI MM NOT_NAMED 1908-02-09 06:00:00 NR -28.9000 66.4000 reunion spur-split 1284 1284 _____O________ -1 -28.9000 66.4000 99 9.90000 7 164
1908032S14071 1908 6 SI MM NOT_NAMED 1908-02-09 09:00:00 NR -29.2463 66.5148 spur-split 1315 1315 _____P________ -1 -29.2463 66.5148 99 7 164
1908032S14071 1908 6 SI MM NOT_NAMED 1908-02-09 12:00:00 NR -29.6109 66.6394 spur-split 1353 1353 _____P________ -1 -29.6109 66.6394 99 8 163
1908032S14071 1908 6 SI MM NOT_NAMED 1908-02-09 15:00:00 NR -29.9851 66.7703 spur-split 1399 1399 _____P________ -1 -29.9851 66.7703 99 8 163
1908032S14071 1908 6 SI MM NOT_NAMED 1908-02-09 18:00:00 NR -30.3604 66.9043 spur-split 1439 1439 _____P________ -1 -30.3604 66.9043 99 8 163
1908032S14071 1908 6 SI MM NOT_NAMED 1908-02-09 21:00:00 NR -30.7282 67.0378 spur-split 1470 1470 _____P________ -1 -30.7282 67.0378 99 8 162
1908032S14071 1908 6 SI MM NOT_NAMED 1908-02-10 00:00:00 NR -31.0797 67.1674 spur-split 1516 1516 _____P________ -1 -31.0797 67.1674 99 7 162
1908032S14071 1908 6 SI MM NOT_NAMED 1908-02-10 03:00:00 NR -31.4065 67.2894 spur-split 1548 1548 _____P________ -1 -31.4065 67.2894 99 7 162
1908032S14071 1908 6 SI MM NOT_NAMED 1908-02-10 06:00:00 NR -31.7000 67.4000 reunion spur-split 1579 1579 _____O________ -1 -31.7000 67.4000 99 9.90000 6 162
1908032S14071 1908 6 SI MM NOT_NAMED 1908-02-10 09:00:00 NR -31.9539 67.4964 spur-split 1611 1611 _____P________ -1 -31.9539 67.4964 99 5 162
1908032S14071 1908 6 SI MM NOT_NAMED 1908-02-10 12:00:00 NR -32.1712 67.5793 spur-split 1634 1634 _____P________ -1 -32.1712 67.5793 99 4 162
1908032S14071 1908 6 SI MM NOT_NAMED 1908-02-10 15:00:00 NR -32.3572 67.6507 spur-split 1658 1658 _____P________ -1 -32.3572 67.6507 99 4 162
1908032S14071 1908 6 SI MM NOT_NAMED 1908-02-10 18:00:00 NR -32.5170 67.7123 spur-split 1666 1666 _____P________ -1 -32.5170 67.7123 99 3 162
1908032S14071 1908 6 SI MM NOT_NAMED 1908-02-10 21:00:00 NR -32.6560 67.7660 spur-split 1689 1689 _____P________ -1 -32.6560 67.7660 99 3 161
1908032S14071 1908 6 SI MM NOT_NAMED 1908-02-11 00:00:00 NR -32.7794 67.8139 spur-split 1698 1698 _____P________ -1 -32.7794 67.8139 99 2 161
1908032S14071 1908 6 SI MM NOT_NAMED 1908-02-11 03:00:00 NR -32.8923 67.8579 spur-split 1713 1713 _____P________ -1 -32.8923 67.8579 99 2 163
1908032S14071 1908 6 SI MM NOT_NAMED 1908-02-11 06:00:00 NR -33.0000 67.9000 reunion spur-split 1721 _____O________ -1 -33.0000 67.9000 99 9.90000 2 164

About IBTrACS Database

This database is a web-friendly format of International Best Track Archive for Climate Stewardship (IBTrACS), a global best track data archive curated by NOAA dating back to 1842.

Updated: 2021-10-19